Time;durP1;ratioP1;P1;durP2;ratioP2;P2;SDS_P1;SDS_P2;PMS_P1;PMS_P2;Temp;Humidity;BMP_temperature;BMP_pressure;BME280_temperature;BME280_humidity;BME280_pressure;Samples;Min_cycle;Max_cycle;Signal;HPM_P1;HPM_P2
2022/07/03 00:01:50;;;;;;;8.50;5.57;;;19.50;1.00;;;;;;6167266;23;20835;-87
2022/07/03 00:04:25;;;;;;;7.30;5.23;;;19.40;1.00;;;;;;6166758;23;20806;-85
2022/07/03 00:07:00;;;;;;;8.07;5.80;;;19.40;1.00;;;;;;6165074;23;20505;-84
2022/07/03 00:09:27;;;;;;;9.90;6.57;;;19.30;1.00;;;;;;6164350;23;20449;-85
2022/07/03 00:11:59;;;;;;;7.07;5.40;;;19.30;1.00;;;;;;6193984;23;20956;-82
2022/07/03 00:14:26;;;;;;;6.57;5.47;;;19.30;1.00;;;;;;6196435;23;20413;-84
2022/07/03 00:16:53;;;;;;;8.10;5.83;;;19.20;1.00;;;;;;6195792;23;20449;-84
2022/07/03 00:19:22;;;;;;;6.93;5.40;;;19.20;1.00;;;;;;6195904;23;20426;-83
2022/07/03 00:21:54;;;;;;;6.20;5.03;;;19.10;1.00;;;;;;6195441;23;20434;-84
2022/07/03 00:24:27;;;;;;;6.80;5.30;;;19.10;1.00;;;;;;6196686;23;20445;-87
2022/07/03 00:26:59;;;;;;;7.33;5.37;;;19.10;1.00;;;;;;6165515;23;20490;-84
2022/07/03 00:29:32;;;;;;;7.50;5.53;;;19.00;1.00;;;;;;6166825;23;20470;-85
2022/07/03 00:32:02;;;;;;;6.53;5.43;;;19.00;1.00;;;;;;6194940;23;20473;-83
2022/07/03 00:34:31;;;;;;;7.73;5.90;;;18.90;1.00;;;;;;6199067;23;20505;-84
2022/07/03 00:37:01;;;;;;;7.33;5.30;;;18.90;1.00;;;;;;6199780;23;20417;-83
2022/07/03 00:39:29;;;;;;;6.87;6.00;;;18.80;1.00;;;;;;6198224;23;20378;-83
2022/07/03 00:42:02;;;;;;;6.70;5.20;;;18.80;1.00;;;;;;6195904;23;20437;-83
2022/07/03 00:44:30;;;;;;;8.30;5.33;;;18.80;1.00;;;;;;6197156;23;20414;-80
2022/07/03 00:47:00;;;;;;;7.37;4.90;;;18.80;1.00;;;;;;6195390;23;20514;-81
2022/07/03 00:49:38;;;;;;;8.20;6.37;;;18.70;1.00;;;;;;6197663;23;20466;-84
2022/07/03 00:52:12;;;;;;;11.43;8.80;;;18.70;1.00;;;;;;6196959;23;20434;-82
2022/07/03 00:54:46;;;;;;;7.00;5.37;;;18.60;1.00;;;;;;6190737;23;20442;-83
2022/07/03 00:57:22;;;;;;;52.37;47.13;;;18.60;1.00;;;;;;6197112;23;20418;-84
2022/07/03 00:59:50;;;;;;;7.00;5.53;;;18.60;1.00;;;;;;6195431;23;20421;-82
2022/07/03 01:02:39;;;;;;;7.97;5.63;;;18.60;1.00;;;;;;6199330;23;20922;-84
2022/07/03 01:05:13;;;;;;;8.47;6.60;;;18.50;1.00;;;;;;6167949;23;20649;-85
2022/07/03 01:07:52;;;;;;;7.80;6.00;;;18.50;1.00;;;;;;6169442;23;20454;-84
2022/07/03 01:10:45;;;;;;;7.53;5.60;;;18.40;1.00;;;;;;6180341;23;20554;-82
2022/07/03 01:13:50;;;;;;;7.60;5.97;;;18.40;1.00;;;;;;6194069;23;20390;-83
2022/07/03 01:16:30;;;;;;;7.90;5.43;;;18.40;1.00;;;;;;6191600;23;20420;-86
2022/07/03 01:19:22;;;;;;;;;;;;;;;;;;;;;
2022/07/03 01:22:25;;;;;;;7.27;5.27;;;18.40;1.00;;;;;;6192385;23;38300;-83
2022/07/03 01:25:33;;;;;;;11.87;7.10;;;18.40;1.00;;;;;;6164501;23;20407;-86
2022/07/03 01:28:21;;;;;;;8.17;5.77;;;18.30;1.00;;;;;;6158027;23;20378;-85
2022/07/03 01:30:51;;;;;;;8.00;6.03;;;18.30;1.00;;;;;;6175820;23;20422;-84
2022/07/03 01:33:26;;;;;;;7.87;6.17;;;18.30;1.00;;;;;;6179072;23;20401;-82
2022/07/03 01:36:07;;;;;;;8.17;5.60;;;18.30;1.00;;;;;;6153429;23;20429;-82
2022/07/03 01:38:43;;;;;;;10.17;6.60;;;18.20;1.00;;;;;;6185613;23;20414;-84
2022/07/03 01:41:26;;;;;;;7.70;5.73;;;18.20;1.00;;;;;;6161271;23;20924;-83
2022/07/03 01:44:43;;;;;;;7.97;5.90;;;18.20;1.00;;;;;;6196910;23;20913;-85
2022/07/03 01:47:24;;;;;;;7.40;5.57;;;18.20;1.00;;;;;;6193993;23;20409;-85
2022/07/03 01:53:06;;;;;;;9.20;6.60;;;18.00;1.00;;;;;;6138870;23;20480;-82
2022/07/03 01:55:44;;;;;;;9.20;6.47;;;18.00;1.00;;;;;;6158073;23;20942;-86
2022/07/03 01:58:30;;;;;;;8.30;5.73;;;18.00;1.00;;;;;;6190502;23;20500;-83
2022/07/03 02:01:13;;;;;;;8.43;5.53;;;17.90;1.00;;;;;;6159091;23;20605;-85
2022/07/03 02:03:54;;;;;;;8.10;6.10;;;17.90;1.00;;;;;;6194673;23;20378;-84
2022/07/03 02:06:33;;;;;;;11.30;5.73;;;17.90;1.00;;;;;;6161071;23;20431;-85
2022/07/03 02:12:27;;;;;;;9.53;5.80;;;17.70;1.00;;;;;;6056116;23;20468;-82
2022/07/03 02:15:04;;;;;;;8.57;6.03;;;17.70;1.00;;;;;;6143529;23;20395;-85
2022/07/03 02:17:45;;;;;;;8.10;6.10;;;17.70;1.00;;;;;;6167134;23;20422;-83
2022/07/03 02:20:41;;;;;;;9.47;5.90;;;17.70;1.00;;;;;;6177124;23;20424;-84
2022/07/03 02:23:29;;;;;;;7.73;5.77;;;17.70;1.00;;;;;;6163222;23;20423;-82
2022/07/03 02:26:10;;;;;;;8.57;5.43;;;17.60;1.00;;;;;;6162521;23;20433;-82
2022/07/03 02:29:06;;;;;;;8.97;6.10;;;17.70;1.00;;;;;;6167115;23;20383;-84
2022/07/03 02:31:47;;;;;;;7.90;5.60;;;17.70;1.00;;;;;;6168551;23;20446;-82
2022/07/03 02:34:23;;;;;;;8.10;5.83;;;17.60;1.00;;;;;;6172019;23;20438;-84
2022/07/03 02:37:06;;;;;;;8.70;6.47;;;17.60;1.00;;;;;;6156369;23;20395;-85
2022/07/03 02:39:54;;;;;;;7.87;6.37;;;17.60;1.00;;;;;;6194610;23;20441;-82
2022/07/03 02:42:49;;;;;;;9.17;6.27;;;17.60;1.00;;;;;;6199364;23;21099;-85
2022/07/03 02:45:29;;;;;;;11.17;6.33;;;17.50;1.00;;;;;;6166594;23;20585;-84
2022/07/03 02:48:26;;;;;;;10.40;6.80;;;17.50;1.00;;;;;;6136657;23;20506;-85
2022/07/03 02:51:06;;;;;;;8.50;6.13;;;17.40;1.00;;;;;;6154866;23;20383;-85
2022/07/03 02:54:04;;;;;;;;;;;;;;;;;;;;;
2022/07/03 02:57:06;;;;;;;9.37;6.40;;;17.30;1.00;;;;;;6167633;23;40911;-85
2022/07/03 03:00:03;;;;;;;9.17;6.43;;;17.30;1.00;;;;;;6124985;23;20419;-86
2022/07/03 03:03:04;;;;;;;11.37;6.53;;;17.20;1.00;;;;;;6158434;23;20454;-83
2022/07/03 03:05:47;;;;;;;8.53;6.13;;;17.20;1.00;;;;;;6167977;23;20407;-84
2022/07/03 03:08:32;;;;;;;10.27;6.00;;;17.10;1.00;;;;;;6169817;23;20391;-84
2022/07/03 03:11:32;;;;;;;8.90;6.50;;;17.10;1.00;;;;;;6143977;23;20403;-83
2022/07/03 03:14:09;;;;;;;8.90;5.90;;;17.10;1.00;;;;;;6112149;23;20396;-83
2022/07/03 03:17:02;;;;;;;9.50;6.57;;;17.10;1.00;;;;;;6137003;23;20423;-84
2022/07/03 03:19:29;;;;;;;9.87;7.10;;;17.20;1.00;;;;;;6134695;23;20447;-85
2022/07/03 03:22:21;;;;;;;9.83;6.43;;;17.20;1.00;;;;;;6139900;23;20482;-85
2022/07/03 03:24:48;;;;;;;9.37;6.43;;;17.20;1.00;;;;;;6125413;23;20495;-87
2022/07/03 03:27:32;;;;;;;10.43;6.83;;;17.30;1.00;;;;;;6138670;23;20431;-86
2022/07/03 03:30:14;;;;;;;7.90;5.73;;;17.30;1.00;;;;;;6123426;23;20412;-83
2022/07/03 03:33:04;;;;;;;9.40;6.30;;;17.30;1.00;;;;;;6123178;23;20510;-84
2022/07/03 03:35:51;;;;;;;8.67;6.40;;;17.30;1.00;;;;;;6163505;23;20543;-83
2022/07/03 03:38:41;;;;;;;;;;;;;;;;;;;;;
2022/07/03 03:41:33;;;;;;;8.90;6.90;;;17.30;1.00;;;;;;6165958;23;51698;-85
2022/07/03 03:44:05;;;;;;;8.40;5.87;;;17.30;1.00;;;;;;6152598;23;20385;-82
2022/07/03 03:46:54;;;;;;;9.03;6.23;;;17.30;1.00;;;;;;6140212;23;20849;-85
2022/07/03 03:49:22;;;;;;;8.70;6.07;;;17.40;1.00;;;;;;6168168;23;20403;-83
2022/07/03 03:51:51;;;;;;;8.53;6.30;;;17.40;1.00;;;;;;6168146;23;20608;-83
2022/07/03 03:54:42;;;;;;;9.97;6.60;;;17.40;1.00;;;;;;6169334;23;20407;-85
2022/07/03 03:57:43;;;;;;;9.53;7.17;;;17.40;1.00;;;;;;6144527;23;20927;-82
2022/07/03 04:03:53;;;;;;;9.20;6.20;;;17.40;1.00;;;;;;5982559;23;20426;-82
2022/07/03 04:33:24;;;;;;;7.90;6.43;;;17.70;1.00;;;;;;5905659;23;20417;-83
2022/07/03 04:36:01;;;;;;;9.37;6.80;;;17.70;1.00;;;;;;6092208;23;20914;-85
2022/07/03 04:38:51;;;;;;;10.23;7.07;;;17.80;1.00;;;;;;6105394;23;20480;-84
2022/07/03 04:47:42;;;;;;;10.20;6.60;;;18.00;1.00;;;;;;6043818;23;20429;-85
2022/07/03 04:50:26;;;;;;;8.47;6.67;;;18.10;1.00;;;;;;6066824;23;20451;-83
2022/07/03 04:53:04;;;;;;;8.53;6.60;;;18.10;1.00;;;;;;6078213;23;20970;-85
2022/07/03 04:56:23;;;;;;;8.77;6.50;;;18.10;1.00;;;;;;6136353;23;20415;-84
2022/07/03 05:02:07;;;;;;;9.80;7.10;;;18.20;1.00;;;;;;6103901;23;20439;-82
2022/07/03 05:15:20;;;;;;;11.40;6.07;;;18.60;1.00;;;;;;6015412;23;20505;-82
2022/07/03 05:18:12;;;;;;;8.20;5.57;;;18.70;1.00;;;;;;6127194;23;20489;-85
2022/07/03 05:20:42;;;;;;;8.90;5.80;;;18.90;1.00;;;;;;6123503;23;20403;-84
2022/07/03 05:23:09;;;;;;;8.03;6.00;;;19.00;1.00;;;;;;6083590;23;20441;-82
2022/07/03 05:26:21;;;;;;;7.40;5.60;;;19.10;1.00;;;;;;6080601;23;21100;-84
2022/07/03 05:29:23;;;;;;;8.17;5.70;;;19.20;1.00;;;;;;6087979;23;20494;-86
2022/07/03 05:32:05;;;;;;;9.10;5.57;;;19.40;1.00;;;;;;6125303;23;20386;-85
2022/07/03 05:34:42;;;;;;;7.60;5.13;;;19.40;1.00;;;;;;6167381;23;20411;-85
2022/07/03 05:37:09;;;;;;;9.40;5.87;;;19.50;1.00;;;;;;6167128;23;20391;-84
2022/07/03 05:39:45;;;;;;;7.80;5.50;;;19.60;1.00;;;;;;6145705;23;20502;-85
2022/07/03 05:42:22;;;;;;;7.53;5.33;;;19.70;1.00;;;;;;6145398;23;20482;-84
2022/07/03 05:44:49;;;;;;;9.33;5.33;;;19.90;1.00;;;;;;6145705;23;21401;-85
2022/07/03 05:47:44;;;;;;;7.60;4.40;;;20.00;1.00;;;;;;6073617;23;20431;-85
2022/07/03 05:50:49;;;;;;;7.87;4.90;;;20.10;1.00;;;;;;6157618;23;20395;-83
2022/07/03 05:53:27;;;;;;;7.90;5.33;;;20.30;1.00;;;;;;6136656;23;20490;-85
2022/07/03 05:56:22;;;;;;;6.80;4.63;;;20.40;1.00;;;;;;6115294;23;20946;-85
2022/07/03 05:59:13;;;;;;;7.90;5.07;;;20.40;1.00;;;;;;6094816;23;20426;-84
2022/07/03 06:02:45;;;;;;;7.13;5.30;;;20.50;1.00;;;;;;6163919;23;20473;-83
2022/07/03 06:09:05;;;;;;;;;;;;;;;;;;;;;
2022/07/03 06:14:31;;;;;;;7.47;4.43;;;21.00;1.00;;;;;;6108795;23;20496;-84
2022/07/03 06:17:22;;;;;;;6.93;4.77;;;21.10;1.00;;;;;;6040769;23;20401;-84
2022/07/03 06:20:08;;;;;;;7.40;5.00;;;21.20;1.00;;;;;;6001014;23;22095;-82
2022/07/03 06:27:04;;;;;;;10.20;4.83;;;21.40;1.00;;;;;;5821055;24;20976;-85
2022/07/03 06:32:44;;;;;;;9.20;5.20;;;21.70;1.00;;;;;;5979168;23;20542;-84
2022/07/03 06:45:35;;;;;;;5.60;4.37;;;22.00;1.00;;;;;;5962179;23;20910;-83
2022/07/03 06:48:02;;;;;;;6.60;4.83;;;22.00;1.00;;;;;;5993594;23;20403;-84
2022/07/03 06:50:29;;;;;;;11.27;4.53;;;22.20;1.00;;;;;;6128198;23;20427;-80
2022/07/03 06:53:22;;;;;;;6.80;4.67;;;22.20;1.00;;;;;;6083254;23;20408;-85
2022/07/03 06:56:06;;;;;;;7.23;4.30;;;22.40;1.00;;;;;;6133958;23;20415;-85
2022/07/03 06:58:42;;;;;;;5.70;4.40;;;22.50;1.00;;;;;;6134671;23;20424;-84
2022/07/03 07:01:13;;;;;;;6.40;4.27;;;22.60;1.00;;;;;;6141053;23;21272;-83
2022/07/03 07:03:46;;;;;;;7.53;4.17;;;22.70;1.00;;;;;;6150454;23;20490;-84
2022/07/03 07:06:22;;;;;;;8.40;4.60;;;22.70;1.00;;;;;;6126490;23;20407;-84
2022/07/03 07:12:27;;;;;;;7.07;4.27;;;22.90;1.00;;;;;;6143199;23;20715;-81
2022/07/03 07:14:55;;;;;;;5.90;4.53;;;23.00;1.00;;;;;;6143985;23;20402;-86
2022/07/03 07:17:35;;;;;;;6.60;4.40;;;23.00;1.00;;;;;;6150987;23;20463;-86
2022/07/03 07:20:03;;;;;;;5.33;3.60;;;23.10;1.00;;;;;;6101498;23;20418;-84
2022/07/03 07:22:30;;;;;;;5.47;3.67;;;23.30;1.00;;;;;;6142755;23;20532;-83
2022/07/03 07:25:03;;;;;;;5.67;4.17;;;23.40;1.00;;;;;;6138374;23;20852;-85
2022/07/03 07:33:45;;;;;;;5.20;3.37;;;23.60;1.00;;;;;;6106807;23;20430;-83
2022/07/03 07:39:03;;;;;;;5.50;3.93;;;23.80;1.00;;;;;;6111068;23;20430;-83
2022/07/03 07:41:42;;;;;;;6.67;4.40;;;23.90;1.00;;;;;;6138377;23;20985;-84
2022/07/03 07:44:45;;;;;;;5.43;3.57;;;24.00;1.00;;;;;;6118682;23;20459;-84
2022/07/03 07:47:44;;;;;;;5.53;3.73;;;24.10;1.00;;;;;;6073069;23;20571;-81
2022/07/03 07:50:14;;;;;;;5.03;3.70;;;24.20;1.00;;;;;;6139204;23;20435;-87
2022/07/03 07:52:42;;;;;;;4.97;3.77;;;24.40;1.00;;;;;;6122187;23;20388;-84
2022/07/03 07:55:15;;;;;;;6.20;3.70;;;24.60;1.00;;;;;;6140512;23;20494;-83
2022/07/03 07:57:45;;;;;;;4.93;3.47;;;24.70;1.00;;;;;;6137852;23;20423;-83
2022/07/03 08:00:34;;;;;;;4.50;3.50;;;24.80;1.00;;;;;;6139973;23;20462;-84
2022/07/03 08:05:55;;;;;;;4.87;3.60;;;24.90;1.00;;;;;;6137992;23;20403;-84
2022/07/03 08:08:33;;;;;;;4.70;3.50;;;25.00;1.00;;;;;;6136923;23;20500;-80
2022/07/03 08:11:09;;;;;;;5.60;3.43;;;24.90;1.00;;;;;;6125506;23;20518;-85
2022/07/03 08:13:41;;;;;;;5.70;3.30;;;25.00;1.00;;;;;;6137154;23;20964;-81
2022/07/03 08:16:08;;;;;;;6.27;3.47;;;25.00;1.00;;;;;;6148494;23;20887;-77
2022/07/03 08:18:35;;;;;;;5.77;3.80;;;25.00;1.00;;;;;;6141042;23;20451;-87
2022/07/03 08:21:10;;;;;;;5.30;3.27;;;25.10;1.00;;;;;;6141121;23;20411;-82
2022/07/03 08:23:46;;;;;;;6.30;3.80;;;25.20;1.00;;;;;;6125587;23;20425;-82
2022/07/03 08:26:13;;;;;;;4.40;3.10;;;25.30;1.00;;;;;;6138744;23;20391;-83
2022/07/03 08:28:44;;;;;;;4.67;3.50;;;25.30;1.00;;;;;;6139297;23;20407;-82
2022/07/03 08:31:11;;;;;;;6.23;3.50;;;25.30;1.00;;;;;;6155503;23;20493;-82
2022/07/03 08:33:48;;;;;;;5.00;3.27;;;25.40;1.00;;;;;;6169601;23;20401;-83
2022/07/03 08:36:28;;;;;;;4.37;3.50;;;25.40;1.00;;;;;;6169332;23;20891;-82
2022/07/03 08:39:01;;;;;;;4.17;3.33;;;25.50;1.00;;;;;;6170075;23;20398;-84
2022/07/03 08:41:29;;;;;;;5.20;3.80;;;25.60;1.00;;;;;;6172046;23;20394;-85
2022/07/03 08:44:02;;;;;;;6.20;3.97;;;25.70;1.00;;;;;;6174446;23;21442;-82
2022/07/03 08:46:31;;;;;;;4.37;3.40;;;25.70;1.00;;;;;;6165930;23;20422;-83
2022/07/03 08:49:06;;;;;;;5.40;3.67;;;25.80;1.00;;;;;;6137145;23;20404;-83
2022/07/03 08:51:36;;;;;;;4.90;3.60;;;25.80;1.00;;;;;;6126452;23;21065;-84
2022/07/03 08:54:06;;;;;;;4.70;3.90;;;25.80;1.00;;;;;;6142439;23;20483;-84
2022/07/03 08:56:34;;;;;;;4.73;3.57;;;26.00;1.00;;;;;;6142522;23;20415;-82
2022/07/03 08:59:06;;;;;;;5.00;3.80;;;26.20;1.00;;;;;;6144352;23;20396;-83
2022/07/03 09:01:34;;;;;;;4.67;3.40;;;26.30;1.00;;;;;;6142394;23;20406;-86
2022/07/03 09:04:04;;;;;;;4.10;3.17;;;26.40;1.00;;;;;;6144430;23;20399;-84
2022/07/03 09:06:35;;;;;;;5.57;3.97;;;26.50;1.00;;;;;;6137713;23;20460;-82
2022/07/03 09:09:04;;;;;;;5.50;3.40;;;26.80;1.00;;;;;;6140533;23;20470;-83
2022/07/03 09:11:33;;;;;;;5.27;3.60;;;26.90;1.00;;;;;;6141009;23;20412;-84
2022/07/03 09:14:06;;;;;;;5.50;3.90;;;26.90;1.00;;;;;;6125838;23;20423;-82
2022/07/03 09:16:42;;;;;;;4.97;4.00;;;26.70;1.00;;;;;;6132585;23;20431;-83
2022/07/03 09:19:14;;;;;;;6.27;3.40;;;26.60;1.00;;;;;;6140681;23;20379;-87
2022/07/03 09:21:44;;;;;;;5.57;3.20;;;26.60;1.00;;;;;;6140004;23;20527;-84
2022/07/03 09:24:13;;;;;;;4.73;2.90;;;26.60;1.00;;;;;;6144412;23;20411;-85
2022/07/03 09:26:55;;;;;;;5.43;2.97;;;26.80;1.00;;;;;;6137092;23;20487;-83
2022/07/03 09:29:24;;;;;;;4.10;3.10;;;27.00;1.00;;;;;;6102405;23;20937;-86
2022/07/03 09:31:57;;;;;;;7.23;3.10;;;27.20;1.00;;;;;;6138067;23;20419;-83
2022/07/03 09:34:26;;;;;;;4.73;3.10;;;27.30;1.00;;;;;;6125436;23;20420;-84
2022/07/03 09:36:54;;;;;;;5.30;3.40;;;27.30;1.00;;;;;;6141310;23;21021;-88
2022/07/03 09:39:26;;;;;;;5.23;3.07;;;27.50;1.00;;;;;;6113132;23;20749;-86
2022/07/03 09:41:55;;;;;;;4.47;3.33;;;27.80;1.00;;;;;;6113532;23;20420;-87
2022/07/03 09:44:36;;;;;;;4.87;3.10;;;28.40;1.00;;;;;;6109220;23;20372;-86
2022/07/03 09:47:23;;;;;;;4.07;3.20;;;29.80;1.00;;;;;;6126839;23;20430;-86
2022/07/03 09:49:55;;;;;;;3.80;3.20;;;31.10;1.00;;;;;;6114171;23;20451;-85
2022/07/03 09:52:43;;;;;;;3.10;2.67;;;32.60;1.00;;;;;;6152178;23;20410;-88
2022/07/03 09:55:21;;;;;;;3.10;2.60;;;33.80;1.00;;;;;;6136868;23;20423;-86
2022/07/03 09:58:01;;;;;;;3.53;2.90;;;35.00;1.00;;;;;;6121798;23;20428;-87
2022/07/03 10:00:35;;;;;;;3.50;2.80;;;35.40;1.00;;;;;;6141524;23;20398;-87
2022/07/03 10:03:13;;;;;;;3.13;2.53;;;35.60;1.00;;;;;;6140352;23;21029;-87
2022/07/03 10:05:41;;;;;;;4.70;3.20;;;36.50;1.00;;;;;;6137881;23;20416;-85
2022/07/03 10:08:13;;;;;;;4.70;3.30;;;36.40;1.00;;;;;;6139949;23;20471;-87
2022/07/03 10:10:41;;;;;;;3.40;2.83;;;35.50;1.00;;;;;;6146097;23;20450;-86
2022/07/03 10:13:15;;;;;;;5.43;2.97;;;35.50;1.00;;;;;;6097766;23;20452;-86
2022/07/03 10:15:45;;;;;;;2.60;2.40;;;36.10;1.00;;;;;;6126598;23;20904;-83
2022/07/03 10:18:14;;;;;;;3.03;2.60;;;36.70;1.00;;;;;;6099149;23;20420;-85
2022/07/03 10:20:47;;;;;;;2.73;2.53;;;36.30;1.00;;;;;;6116051;23;20444;-85
2022/07/03 10:23:17;;;;;;;3.17;2.70;;;35.90;1.00;;;;;;6115673;23;20443;-84
2022/07/03 10:25:46;;;;;;;4.10;2.70;;;36.80;1.00;;;;;;6110866;23;20413;-83
2022/07/03 10:28:14;;;;;;;2.87;2.60;;;38.10;1.00;;;;;;6111418;23;20902;-85
2022/07/03 10:30:47;;;;;;;5.03;2.80;;;37.40;1.00;;;;;;6110939;23;20491;-85
2022/07/03 10:33:14;;;;;;;4.07;2.80;;;37.70;1.00;;;;;;6112581;23;20472;-86
2022/07/03 10:35:50;;;;;;;3.03;2.83;;;38.50;1.00;;;;;;6113710;23;20444;-83
2022/07/03 10:38:36;;;;;;;2.53;2.33;;;38.40;1.00;;;;;;6115757;23;21281;-87
2022/07/03 10:46:48;;;;;;;3.07;2.77;;;39.70;1.00;;;;;;6142449;23;20892;-84
2022/07/03 10:49:15;;;;;;;2.87;2.57;;;40.20;1.00;;;;;;6141512;23;20427;-84
2022/07/03 10:51:57;;;;;;;2.67;2.27;;;40.60;1.00;;;;;;6140525;23;20400;-86
2022/07/03 10:54:33;;;;;;;3.13;2.70;;;41.10;1.00;;;;;;6140349;23;20786;-82
2022/07/03 10:57:15;;;;;;;3.03;2.70;;;40.90;1.00;;;;;;6140756;23;20394;-83
2022/07/03 11:00:22;;;;;;;2.53;2.33;;;40.70;1.00;;;;;;6136550;23;20432;-87
2022/07/03 11:03:07;;;;;;;3.00;2.70;;;40.80;1.00;;;;;;6140667;23;20396;-83
2022/07/03 11:05:45;;;;;;;2.93;2.73;;;41.30;1.00;;;;;;6122337;23;20403;-84
2022/07/03 11:08:15;;;;;;;2.90;2.60;;;40.80;1.00;;;;;;6142333;23;20478;-82
2022/07/03 11:11:54;;;;;;;4.80;2.70;;;40.70;1.00;;;;;;6127902;23;20435;-83
2022/07/03 11:14:25;;;;;;;2.50;2.30;;;40.70;1.00;;;;;;6115957;23;20391;-83
2022/07/03 11:17:24;;;;;;;3.43;2.77;;;40.50;1.00;;;;;;6113604;23;20448;-87
2022/07/03 11:22:52;;;;;;;3.23;2.97;;;38.70;1.00;;;;;;6113478;23;20820;-83
2022/07/03 11:25:43;;;;;;;5.17;3.53;;;36.80;1.00;;;;;;6087469;23;21234;-84
2022/07/03 11:28:53;;;;;;;3.47;3.17;;;36.30;1.00;;;;;;6113335;23;20436;-85
2022/07/03 11:31:25;;;;;;;3.67;2.80;;;37.60;1.00;;;;;;6114510;23;20388;-83
2022/07/03 11:34:04;;;;;;;3.83;2.90;;;39.00;1.00;;;;;;6085855;23;20429;-83
2022/07/03 11:36:35;;;;;;;4.93;2.93;;;40.20;1.00;;;;;;6094311;23;20496;-86
2022/07/03 11:39:10;;;;;;;3.20;2.50;;;41.20;1.00;;;;;;6112390;23;20451;-88
2022/07/03 11:41:47;;;;;;;3.10;2.60;;;41.50;1.00;;;;;;6097878;23;20416;-87
2022/07/03 11:44:27;;;;;;;2.50;2.30;;;42.30;1.00;;;;;;6110895;23;20424;-86
2022/07/03 11:46:54;;;;;;;3.07;2.80;;;42.80;1.00;;;;;;6110662;23;20508;-84
2022/07/03 11:49:27;;;;;;;4.80;3.57;;;42.80;1.00;;;;;;6111499;23;20428;-82
2022/07/03 11:52:06;;;;;;;2.43;2.23;;;43.30;1.00;;;;;;6095703;23;20416;-82
2022/07/03 11:54:50;;;;;;;4.80;2.43;;;43.50;1.00;;;;;;6112626;23;20884;-86
2022/07/03 11:57:17;;;;;;;2.80;2.60;;;43.30;1.00;;;;;;6115025;23;20392;-83
2022/07/03 11:59:53;;;;;;;2.50;2.30;;;43.90;1.00;;;;;;6088569;23;20436;-87
2022/07/03 12:02:31;;;;;;;3.43;1.83;;;43.70;1.00;;;;;;6098136;23;20460;-82
2022/07/03 12:05:03;;;;;;;3.90;2.20;;;43.20;1.00;;;;;;6072247;23;20456;-82
2022/07/03 12:07:32;;;;;;;1.83;1.73;;;43.20;1.00;;;;;;6108703;23;20460;-87
2022/07/03 12:10:04;;;;;;;2.77;2.57;;;41.90;1.00;;;;;;6074550;23;20548;-87
2022/07/03 12:12:45;;;;;;;2.90;2.70;;;42.00;1.00;;;;;;6111195;23;20923;-82
2022/07/03 12:15:14;;;;;;;2.30;2.10;;;41.80;1.00;;;;;;6099069;23;20432;-83
2022/07/03 12:17:46;;;;;;;2.00;1.80;;;42.10;1.00;;;;;;6108248;23;20405;-85
2022/07/03 12:20:14;;;;;;;3.20;2.57;;;41.20;1.00;;;;;;6112086;23;20459;-83
2022/07/03 12:22:55;;;;;;;2.43;2.23;;;40.90;1.00;;;;;;6114716;23;20617;-84
2022/07/03 12:25:30;;;;;;;2.60;2.10;;;41.60;1.00;;;;;;6111729;23;20482;-83
2022/07/03 12:28:03;;;;;;;2.57;2.37;;;41.80;1.00;;;;;;6088701;23;21237;-86
2022/07/03 12:30:35;;;;;;;2.93;2.30;;;42.30;1.00;;;;;;6099484;23;20515;-86
2022/07/03 12:33:07;;;;;;;2.50;2.30;;;43.00;1.00;;;;;;6115985;23;20383;-84
2022/07/03 12:35:34;;;;;;;2.43;2.20;;;43.30;1.00;;;;;;6099326;23;20463;-84
2022/07/03 12:38:34;;;;;;;3.10;2.50;;;43.80;1.00;;;;;;6105731;23;20431;-87
2022/07/03 12:41:26;;;;;;;2.60;2.40;;;44.00;1.00;;;;;;6090094;23;20437;-84
2022/07/03 12:44:05;;;;;;;2.73;2.53;;;44.60;1.00;;;;;;6080493;23;20407;-88
2022/07/03 12:46:47;;;;;;;2.60;2.40;;;45.20;1.00;;;;;;6118827;23;20404;-85
2022/07/03 12:49:34;;;;;;;3.10;2.90;;;45.40;1.00;;;;;;6092991;23;20401;-85
2022/07/03 12:52:09;;;;;;;2.10;2.00;;;44.50;1.00;;;;;;6100248;23;20411;-84
2022/07/03 13:00:21;;;;;;;3.57;3.20;;;41.20;1.00;;;;;;6097138;23;20420;-84
2022/07/03 13:02:54;;;;;;;3.23;2.80;;;39.30;1.00;;;;;;6070972;23;20454;-84
2022/07/03 13:05:40;;;;;;;7.07;4.83;;;38.40;1.00;;;;;;6112111;23;20467;-86
2022/07/03 13:08:36;;;;;;;2.87;2.60;;;38.30;1.00;;;;;;6114846;23;20471;-83
2022/07/03 13:11:06;;;;;;;2.80;2.60;;;38.70;1.00;;;;;;6094128;23;20429;-84
2022/07/03 13:13:56;;;;;;;3.87;2.67;;;38.80;1.00;;;;;;6116421;23;20461;-84
2022/07/03 13:16:26;;;;;;;2.97;2.63;;;39.40;1.00;;;;;;6109763;23;20396;-83
2022/07/03 13:19:03;;;;;;;2.80;2.60;;;39.80;1.00;;;;;;6086936;23;20396;-83
2022/07/03 13:21:35;;;;;;;2.50;2.30;;;39.90;1.00;;;;;;6126954;23;20427;-83
2022/07/03 13:24:04;;;;;;;2.50;2.30;;;40.60;1.00;;;;;;6125202;23;20515;-84
2022/07/03 13:26:35;;;;;;;2.97;2.30;;;42.20;1.00;;;;;;6112168;23;20414;-84
2022/07/03 13:29:23;;;;;;;2.47;2.27;;;43.60;1.00;;;;;;6120926;23;20466;-88
2022/07/03 13:31:57;;;;;;;3.13;2.83;;;43.90;1.00;;;;;;6086596;23;20376;-83
2022/07/03 13:34:28;;;;;;;2.40;2.20;;;43.80;1.00;;;;;;6106070;23;20408;-83
2022/07/03 13:37:03;;;;;;;3.20;2.93;;;43.80;1.00;;;;;;6078849;23;20430;-89
2022/07/03 13:39:43;;;;;;;2.80;2.30;;;43.90;1.00;;;;;;6127254;23;20425;-82
2022/07/03 13:42:17;;;;;;;2.90;2.70;;;44.20;1.00;;;;;;6102934;23;20507;-90
2022/07/03 13:45:07;;;;;;;2.40;2.20;;;44.70;1.00;;;;;;6087900;23;20509;-89
2022/07/03 13:47:37;;;;;;;2.80;2.50;;;44.50;1.00;;;;;;6119328;23;20412;-90
2022/07/03 13:50:07;;;;;;;2.53;2.33;;;41.90;1.00;;;;;;6098243;23;20509;-86
2022/07/03 13:52:35;;;;;;;2.77;2.57;;;40.40;1.00;;;;;;6099135;23;20522;-82
2022/07/03 13:55:18;;;;;;;3.77;2.67;;;39.00;1.00;;;;;;6111715;23;20411;-82
2022/07/03 13:57:55;;;;;;;3.17;2.90;;;37.40;1.00;;;;;;6094187;23;20420;-82
2022/07/03 14:00:25;;;;;;;3.50;2.90;;;36.80;1.00;;;;;;6090948;23;20393;-89
2022/07/03 14:02:56;;;;;;;3.43;3.13;;;38.00;1.00;;;;;;6099947;23;20407;-84
2022/07/03 14:05:27;;;;;;;3.47;3.17;;;37.70;1.00;;;;;;6110955;23;20470;-89
2022/07/03 14:07:57;;;;;;;2.90;2.70;;;36.70;1.00;;;;;;6096588;23;20605;-84
2022/07/03 14:10:34;;;;;;;3.27;2.43;;;36.60;1.00;;;;;;6112092;23;20486;-83
2022/07/03 14:13:06;;;;;;;3.80;3.50;;;37.10;1.00;;;;;;6125195;23;20487;-85
2022/07/03 14:15:36;;;;;;;2.70;2.50;;;38.80;1.00;;;;;;6117977;23;20419;-86
2022/07/03 14:18:06;;;;;;;2.53;2.33;;;40.70;1.00;;;;;;6086026;23;20387;-84
2022/07/03 14:20:35;;;;;;;2.67;2.47;;;41.90;1.00;;;;;;6108349;23;20431;-86
2022/07/03 14:23:05;;;;;;;2.70;2.50;;;42.60;1.00;;;;;;6109406;23;20460;-84
2022/07/03 14:25:34;;;;;;;2.53;2.33;;;43.20;1.00;;;;;;6106367;23;20463;-84
2022/07/03 14:33:30;;;;;;;2.70;2.50;;;44.20;1.00;;;;;;5965433;23;21225;-84
2022/07/03 14:36:05;;;;;;;2.70;2.50;;;43.90;1.00;;;;;;6082042;23;20443;-82
2022/07/03 14:38:32;;;;;;;3.27;2.50;;;44.00;1.00;;;;;;6117373;23;20416;-81
2022/07/03 14:41:03;;;;;;;2.90;2.60;;;43.80;1.00;;;;;;6111572;23;20468;-82
2022/07/03 14:43:30;;;;;;;2.87;2.67;;;43.40;1.00;;;;;;6109963;23;20428;-85
2022/07/03 14:45:57;;;;;;;1.90;1.80;;;43.50;1.00;;;;;;6095294;23;20544;-84
2022/07/03 14:48:25;;;;;;;3.20;3.00;;;43.60;1.00;;;;;;6109082;23;20424;-84
2022/07/03 14:50:52;;;;;;;2.83;2.73;;;43.50;1.00;;;;;;6108711;23;20502;-82
2022/07/03 14:53:25;;;;;;;2.20;2.10;;;43.60;1.00;;;;;;6110528;23;20504;-86
2022/07/03 14:55:55;;;;;;;2.23;2.13;;;43.50;1.00;;;;;;6105278;23;20467;-83
2022/07/03 14:58:29;;;;;;;2.53;2.33;;;43.70;1.00;;;;;;6105773;23;20401;-83
2022/07/03 15:01:06;;;;;;;2.60;2.40;;;43.00;1.00;;;;;;6091885;23;20502;-82
2022/07/03 15:03:47;;;;;;;2.70;2.50;;;42.80;1.00;;;;;;6092704;23;20438;-83
2022/07/03 15:06:27;;;;;;;;;;;;;;;;;;;;;
2022/07/03 15:09:17;;;;;;;2.40;2.20;;;42.50;1.00;;;;;;6079807;23;41181;-85
2022/07/03 15:15:16;;;;;;;2.20;2.10;;;42.40;1.00;;;;;;6095724;23;20550;-87
2022/07/03 15:18:04;;;;;;;2.30;2.10;;;42.40;1.00;;;;;;6107853;23;20408;-85
2022/07/03 15:21:07;;;;;;;2.83;2.63;;;42.80;1.00;;;;;;6108376;23;20530;-85
2022/07/03 15:23:37;;;;;;;2.80;2.60;;;43.40;1.00;;;;;;6124965;23;20790;-84
2022/07/03 15:26:16;;;;;;;3.20;2.73;;;43.50;1.00;;;;;;6104055;23;20422;-84
2022/07/03 15:28:45;;;;;;;4.17;2.70;;;43.30;1.00;;;;;;6117975;23;20454;-83
2022/07/03 15:31:19;;;;;;;3.83;3.40;;;42.90;1.00;;;;;;6137630;23;20392;-86
2022/07/03 15:33:53;;;;;;;3.00;2.80;;;42.20;1.00;;;;;;6093833;23;20447;-84
2022/07/03 15:36:28;;;;;;;2.70;2.60;;;41.80;1.00;;;;;;6134873;23;20427;-84
2022/07/03 15:39:06;;;;;;;2.60;2.40;;;41.60;1.00;;;;;;6065595;23;20405;-86
2022/07/03 15:41:54;;;;;;;2.77;2.57;;;42.10;1.00;;;;;;6066405;23;20489;-86
2022/07/03 15:44:34;;;;;;;3.30;3.00;;;42.60;1.00;;;;;;6108331;23;20531;-85
2022/07/03 15:47:38;;;;;;;;;;;;;;;;;;;;;
2022/07/03 15:50:24;;;;;;;2.80;2.60;;;41.40;1.00;;;;;;6106879;23;49759;-84
2022/07/03 15:53:14;;;;;;;3.10;2.90;;;40.30;1.00;;;;;;6073117;23;20401;-85
2022/07/03 15:55:56;;;;;;;3.10;2.80;;;40.60;1.00;;;;;;6143857;23;20467;-85
2022/07/03 15:58:39;;;;;;;2.30;2.20;;;40.90;1.00;;;;;;6107834;23;20554;-85
2022/07/03 16:04:27;;;;;;;3.10;2.90;;;41.20;1.00;;;;;;5989284;23;20434;-87